Terminal Aerodrome Forecast
Issued by NWS

Home | Current Version | Previous Version | Text Only | Print | Product List | Glossary On
Versions: 1 2 3 4 5 6 7 8 9 10 11 12 13 14 15 16 17 18
000
FTUS41 KCAR 212320
TAFFVE
TAF
KFVE 212320Z 2200/2224 29009KT P6SM SCT120
     FM220700 26005KT P6SM BKN250
     FM221500 23010KT P6SM SCT025 BKN070=

USA.gov is the U.S. government's official web portal to all federal, state and local government web resources and services.